Contact Info

Augusta Flying Club, Inc

KDNL 220453Z AUTO 36007KT 10SM CLR 00/M11 A3037 RMK AO2 SLP285 T00001106 400611011


TAF KDNL 220525Z 2206/2306 36006KT P6SM SKC WS020/03030KT FM221300 02010G16KT P6SM SCT250 FM221800 03008KT P6SM BKN250

info@augustaflyingclub.com

Send us a message